Time;durP1;ratioP1;P1;durP2;ratioP2;P2;SDS_P1;SDS_P2;PMS_P1;PMS_P2;Temp;Humidity;BMP_temperature;BMP_pressure;BME280_temperature;BME280_humidity;BME280_pressure;Samples;Min_cycle;Max_cycle;Signal;HPM_P1;HPM_P2
2022/08/30 00:01:05;;;;;;;7.53;3.40;;;24.60;98.50;;;;;;4914907;29;20028;-86
2022/08/30 00:03:46;;;;;;;8.77;3.33;;;24.50;97.60;;;;;;4915455;29;20059;-86
2022/08/30 00:06:17;;;;;;;8.15;3.25;;;24.50;97.70;;;;;;4898867;29;20062;-87
2022/08/30 00:08:43;;;;;;;6.03;3.47;;;24.50;97.80;;;;;;4919921;29;20076;-87
2022/08/30 00:11:13;;;;;;;11.85;3.33;;;24.50;96.50;;;;;;4918839;29;20034;-87
2022/08/30 00:13:41;;;;;;;5.75;3.20;;;24.50;96.10;;;;;;4914663;29;20063;-87
2022/08/30 00:16:08;;;;;;;12.50;3.78;;;24.50;96.10;;;;;;4897309;29;20557;-88
2022/08/30 00:18:34;;;;;;;6.28;3.92;;;24.50;96.70;;;;;;4914458;29;20516;-87
2022/08/30 00:21:00;;;;;;;7.72;4.10;;;24.50;96.30;;;;;;4914412;29;20045;-87
2022/08/30 00:23:26;;;;;;;11.02;3.80;;;24.40;95.60;;;;;;4915110;29;20020;-87
2022/08/30 00:25:52;;;;;;;9.50;3.42;;;24.40;96.00;;;;;;4914352;29;20402;-87
2022/08/30 00:28:18;;;;;;;11.27;3.45;;;24.40;96.00;;;;;;4894723;29;20032;-86
2022/08/30 00:30:45;;;;;;;7.97;3.30;;;24.40;95.60;;;;;;4914530;29;20080;-87
2022/08/30 00:33:12;;;;;;;8.85;3.42;;;24.40;95.90;;;;;;4914673;29;20039;-87
2022/08/30 00:35:38;;;;;;;7.45;3.30;;;24.40;96.00;;;;;;4914267;29;20032;-87
2022/08/30 00:38:05;;;;;;;6.85;3.42;;;24.40;96.00;;;;;;4914356;29;20040;-86
2022/08/30 00:40:31;;;;;;;6.93;3.22;;;24.40;96.00;;;;;;4914101;29;20033;-87
2022/08/30 00:42:59;;;;;;;6.78;3.50;;;24.40;96.40;;;;;;4914129;29;20050;-87
2022/08/30 00:45:29;;;;;;;7.95;3.25;;;24.40;96.60;;;;;;4914232;29;20040;-88
2022/08/30 00:47:55;;;;;;;6.43;3.40;;;24.40;96.70;;;;;;4914026;29;20039;-87
2022/08/30 00:50:24;;;;;;;4.78;3.30;;;24.40;96.70;;;;;;4913989;29;20028;-87
2022/08/30 00:52:54;;;;;;;5.47;3.40;;;24.40;96.70;;;;;;4913874;29;20729;-86
2022/08/30 00:55:21;;;;;;;7.80;3.33;;;24.40;96.60;;;;;;4913816;29;20039;-87
2022/08/30 00:57:50;;;;;;;4.78;3.30;;;24.30;95.50;;;;;;4913839;29;20083;-87
2022/08/30 01:00:16;;;;;;;5.63;3.15;;;24.40;95.70;;;;;;4896722;29;20032;-87
2022/08/30 01:02:42;;;;;;;4.90;3.05;;;24.40;95.70;;;;;;4913735;29;20020;-87
2022/08/30 01:05:11;;;;;;;4.93;3.47;;;24.40;95.90;;;;;;4914000;29;20032;-87
2022/08/30 01:07:40;;;;;;;10.02;3.60;;;24.40;96.00;;;;;;4913844;29;20028;-87
2022/08/30 01:10:08;;;;;;;5.30;3.20;;;24.40;95.40;;;;;;4913562;29;20024;-86
2022/08/30 01:12:36;;;;;;;6.63;3.40;;;24.40;95.50;;;;;;4913868;29;20508;-87
2022/08/30 01:15:02;;;;;;;9.40;3.63;;;24.40;95.90;;;;;;4912978;29;20036;-87
2022/08/30 01:17:28;;;;;;;3.97;3.25;;;24.40;95.90;;;;;;4913515;29;20389;-87
2022/08/30 01:20:08;;;;;;;5.57;3.38;;;24.30;96.00;;;;;;4913740;29;20032;-87
2022/08/30 01:22:49;;;;;;;9.30;3.50;;;24.30;95.80;;;;;;4913896;29;20481;-87
2022/08/30 01:25:18;;;;;;;5.53;3.47;;;24.30;96.10;;;;;;4913671;29;20031;-88
2022/08/30 01:27:52;;;;;;;8.20;3.25;;;24.20;96.10;;;;;;4913539;29;20507;-87
2022/08/30 01:30:18;;;;;;;8.65;3.42;;;24.20;96.30;;;;;;4913533;29;20036;-87
2022/08/30 01:32:46;;;;;;;8.05;3.53;;;24.20;96.30;;;;;;4913414;29;20031;-86
2022/08/30 01:35:15;;;;;;;7.30;2.85;;;24.10;96.20;;;;;;4896384;29;20131;-87
2022/08/30 01:37:41;;;;;;;5.45;3.15;;;24.20;95.60;;;;;;4912168;29;20024;-87
2022/08/30 01:40:09;;;;;;;9.70;3.60;;;24.20;95.20;;;;;;4913214;29;20051;-87
2022/08/30 01:42:35;;;;;;;7.28;2.90;;;24.10;94.10;;;;;;4913297;29;20035;-87
2022/08/30 01:45:01;;;;;;;4.47;3.08;;;24.10;94.00;;;;;;4913553;29;20032;-88
2022/08/30 01:47:26;;;;;;;9.82;3.40;;;24.20;94.50;;;;;;4913479;29;20442;-86
2022/08/30 01:49:52;;;;;;;6.95;3.22;;;24.20;95.00;;;;;;4913384;29;20046;-87
2022/08/30 01:52:19;;;;;;;7.53;3.40;;;24.30;96.30;;;;;;4913327;29;20083;-87
2022/08/30 01:54:45;;;;;;;6.15;3.22;;;24.30;97.20;;;;;;4913102;29;20084;-86
2022/08/30 01:57:16;;;;;;;6.18;3.03;;;24.30;97.20;;;;;;4913552;29;20647;-86
2022/08/30 01:59:46;;;;;;;6.13;3.00;;;24.30;97.40;;;;;;4913346;29;20032;-87
2022/08/30 02:02:14;;;;;;;5.00;3.55;;;24.30;97.20;;;;;;4913104;29;20370;-87
2022/08/30 02:04:40;;;;;;;5.25;3.33;;;24.40;97.10;;;;;;4914107;29;20028;-87
2022/08/30 02:07:05;;;;;;;4.22;3.33;;;24.30;97.20;;;;;;4913931;29;20016;-86
2022/08/30 02:09:31;;;;;;;6.75;3.33;;;24.30;96.70;;;;;;4913843;29;20031;-87
2022/08/30 02:11:57;;;;;;;6.07;3.55;;;24.20;96.90;;;;;;4913194;29;20024;-87
2022/08/30 02:14:23;;;;;;;6.80;3.15;;;24.20;96.90;;;;;;4913361;29;20032;-87
2022/08/30 02:16:49;;;;;;;6.72;3.50;;;24.20;97.30;;;;;;4913273;29;20027;-87
2022/08/30 02:19:14;;;;;;;6.63;3.65;;;24.20;97.20;;;;;;4895920;29;20537;-86
2022/08/30 02:21:40;;;;;;;6.93;3.80;;;24.20;97.40;;;;;;4913151;29;20079;-86
2022/08/30 02:24:06;;;;;;;7.68;3.63;;;24.30;97.40;;;;;;4913113;29;20084;-87
2022/08/30 02:26:32;;;;;;;6.85;3.50;;;24.30;97.00;;;;;;4912448;29;20516;-87
2022/08/30 02:28:58;;;;;;;8.68;3.60;;;24.30;96.80;;;;;;4916647;29;20029;-87
2022/08/30 02:31:25;;;;;;;9.95;3.83;;;24.30;96.90;;;;;;4916759;29;20028;-86
2022/08/30 02:33:51;;;;;;;7.55;3.97;;;24.30;97.30;;;;;;4916467;29;20031;-87
2022/08/30 02:36:19;;;;;;;7.72;3.55;;;24.40;97.20;;;;;;4899680;29;20153;-86
2022/08/30 02:38:45;;;;;;;4.75;3.28;;;24.40;97.30;;;;;;4916315;29;20413;-86
2022/08/30 02:41:11;;;;;;;5.35;3.58;;;24.40;97.40;;;;;;4916247;29;20042;-86
2022/08/30 02:43:37;;;;;;;5.32;3.78;;;24.30;97.30;;;;;;4916142;29;20497;-86
2022/08/30 02:46:02;;;;;;;6.75;3.60;;;24.40;97.40;;;;;;4916419;29;20027;-87
2022/08/30 02:48:28;;;;;;;6.10;3.05;;;24.40;97.50;;;;;;4916444;29;20047;-87
2022/08/30 02:50:54;;;;;;;8.88;3.20;;;24.30;97.70;;;;;;4916165;29;20094;-87
2022/08/30 02:53:20;;;;;;;9.15;3.38;;;24.40;97.40;;;;;;4916311;29;20024;-86
2022/08/30 02:55:46;;;;;;;6.82;3.35;;;24.40;97.80;;;;;;4915909;29;20028;-86
2022/08/30 02:58:12;;;;;;;5.20;3.33;;;24.40;97.90;;;;;;4916359;29;20040;-87
2022/08/30 03:00:39;;;;;;;8.07;3.55;;;24.40;97.90;;;;;;4916028;29;20028;-86
2022/08/30 03:03:06;;;;;;;7.50;3.55;;;24.40;98.00;;;;;;4915857;29;20112;-87
2022/08/30 03:05:32;;;;;;;6.32;3.50;;;24.30;98.00;;;;;;4915709;29;20021;-86
2022/08/30 03:07:59;;;;;;;6.07;3.83;;;24.30;97.90;;;;;;4914520;29;20020;-86
2022/08/30 03:10:26;;;;;;;6.93;3.17;;;24.20;97.60;;;;;;4916221;29;20028;-87
2022/08/30 03:12:53;;;;;;;7.15;3.55;;;24.20;97.90;;;;;;4915778;29;20024;-87
2022/08/30 03:15:19;;;;;;;7.22;3.58;;;24.20;98.10;;;;;;4915879;29;20493;-87
2022/08/30 03:17:45;;;;;;;9.27;3.70;;;24.20;98.50;;;;;;4915752;29;20020;-87
2022/08/30 03:20:10;;;;;;;8.40;4.00;;;24.20;98.60;;;;;;4915641;29;20043;-86
2022/08/30 03:22:36;;;;;;;7.93;3.80;;;24.20;99.10;;;;;;4915267;29;20052;-87
2022/08/30 03:25:03;;;;;;;7.45;3.75;;;24.20;99.30;;;;;;4915497;29;20028;-86
2022/08/30 03:27:29;;;;;;;10.20;3.80;;;24.20;99.50;;;;;;4915377;29;20044;-87
2022/08/30 03:29:55;;;;;;;9.80;4.03;;;24.10;99.80;;;;;;4915509;29;20461;-87
2022/08/30 03:32:21;;;;;;;7.53;4.00;;;24.10;99.90;;;;;;4915625;29;20099;-87
2022/08/30 03:34:47;;;;;;;6.97;4.20;;;24.10;99.90;;;;;;4912812;29;20021;-87
2022/08/30 03:37:13;;;;;;;6.65;4.63;;;24.20;99.90;;;;;;4914975;29;20051;-86
2022/08/30 03:39:39;;;;;;;9.30;4.05;;;24.20;99.90;;;;;;4915120;29;20068;-87
2022/08/30 03:42:05;;;;;;;6.00;3.63;;;24.20;99.90;;;;;;4915120;29;20449;-87
2022/08/30 03:44:31;;;;;;;10.15;4.22;;;24.20;99.90;;;;;;4915129;29;20036;-86
2022/08/30 03:46:56;;;;;;;8.60;4.78;;;24.10;99.90;;;;;;4914956;29;20031;-86
2022/08/30 03:49:25;;;;;;;9.65;4.47;;;24.10;99.90;;;;;;4915294;29;20032;-87
2022/08/30 03:51:50;;;;;;;7.35;4.60;;;24.20;99.90;;;;;;4915570;29;20028;-87
2022/08/30 03:54:16;;;;;;;6.32;3.90;;;24.10;99.90;;;;;;4914939;29;20032;-87
2022/08/30 03:56:42;;;;;;;8.55;4.72;;;24.10;99.90;;;;;;4915242;29;20035;-86
2022/08/30 03:59:08;;;;;;;10.07;4.30;;;24.10;99.90;;;;;;4914863;29;20464;-86
2022/08/30 04:01:33;;;;;;;7.85;4.25;;;24.00;99.90;;;;;;4914977;29;20095;-86
2022/08/30 04:03:59;;;;;;;9.88;4.40;;;24.00;99.90;;;;;;4914547;29;20083;-86
2022/08/30 04:06:26;;;;;;;8.30;4.00;;;24.00;99.90;;;;;;4893535;29;20035;-87
2022/08/30 04:08:51;;;;;;;12.13;4.97;;;23.90;99.90;;;;;;4914841;29;20032;-86
2022/08/30 04:11:17;;;;;;;8.57;4.30;;;23.80;99.90;;;;;;4914785;29;20028;-86
2022/08/30 04:13:43;;;;;;;10.18;4.47;;;23.80;99.90;;;;;;4914800;29;20032;-86
2022/08/30 04:16:09;;;;;;;7.85;4.35;;;23.80;99.90;;;;;;4914544;29;20119;-86
2022/08/30 04:18:35;;;;;;;9.65;4.70;;;23.70;99.90;;;;;;4914806;29;20028;-86
2022/08/30 04:21:02;;;;;;;10.63;4.65;;;23.70;99.90;;;;;;4897395;29;20397;-87
2022/08/30 04:23:28;;;;;;;8.73;4.78;;;23.70;99.90;;;;;;4914718;29;20020;-86
2022/08/30 04:25:54;;;;;;;11.32;4.65;;;23.60;99.90;;;;;;4913861;29;20122;-86
2022/08/30 04:28:21;;;;;;;6.30;4.30;;;23.70;99.90;;;;;;4914699;29;20024;-86
2022/08/30 04:30:46;;;;;;;8.95;4.30;;;23.70;99.90;;;;;;4914399;29;20036;-86
2022/08/30 04:33:13;;;;;;;9.73;4.60;;;23.70;99.90;;;;;;4914531;29;20405;-86
2022/08/30 04:35:41;;;;;;;6.97;4.90;;;23.70;99.90;;;;;;4914389;29;20041;-86
2022/08/30 04:38:07;;;;;;;10.48;4.43;;;23.70;99.90;;;;;;4914279;29;20116;-86
2022/08/30 04:40:33;;;;;;;9.68;4.93;;;23.70;99.90;;;;;;4914336;29;20036;-86
2022/08/30 04:42:59;;;;;;;9.77;4.18;;;23.70;99.90;;;;;;4909161;29;20493;-86
2022/08/30 04:45:24;;;;;;;6.75;4.30;;;23.60;99.90;;;;;;4912679;29;20036;-86
2022/08/30 04:47:50;;;;;;;8.65;4.20;;;23.70;99.90;;;;;;4894326;29;20060;-86
2022/08/30 04:50:18;;;;;;;9.38;4.10;;;23.60;99.90;;;;;;4913342;29;20066;-86
2022/08/30 04:52:44;;;;;;;12.38;4.40;;;23.70;99.90;;;;;;4914724;29;20024;-84
2022/08/30 04:55:11;;;;;;;11.40;4.20;;;23.60;99.90;;;;;;4913684;29;20050;-82
2022/08/30 04:57:39;;;;;;;10.57;4.15;;;23.60;99.90;;;;;;4913968;29;20092;-82
2022/08/30 05:00:07;;;;;;;6.80;3.70;;;23.50;99.90;;;;;;4913929;29;20024;-82
2022/08/30 05:02:33;;;;;;;8.43;4.03;;;23.50;99.90;;;;;;4913715;29;20025;-82
2022/08/30 05:05:40;;;;;;;7.07;3.80;;;23.40;99.90;;;;;;4913918;29;20058;-82
2022/08/30 05:07:47;;;;;;;7.30;3.65;;;23.40;99.90;;;;;;4907729;29;20374;-82
2022/08/30 05:10:12;;;;;;;11.48;4.22;;;23.50;99.90;;;;;;4913554;29;20035;-82
2022/08/30 05:12:39;;;;;;;10.05;4.03;;;23.50;99.90;;;;;;4913852;29;20125;-82
2022/08/30 05:15:05;;;;;;;6.32;3.80;;;23.50;99.90;;;;;;4912394;29;20091;-82
2022/08/30 05:17:31;;;;;;;7.50;3.97;;;23.50;99.90;;;;;;4913932;29;20028;-82
2022/08/30 05:19:56;;;;;;;6.60;3.80;;;23.50;99.90;;;;;;4913739;29;20378;-84
2022/08/30 05:22:22;;;;;;;8.23;4.45;;;23.50;99.90;;;;;;4896314;29;20090;-83
2022/08/30 05:24:48;;;;;;;10.30;4.03;;;23.50;99.90;;;;;;4913122;29;20024;-82
2022/08/30 05:27:14;;;;;;;10.32;3.90;;;23.50;99.90;;;;;;4913098;29;20044;-83
2022/08/30 05:29:40;;;;;;;9.98;3.78;;;23.60;99.90;;;;;;4913182;29;20020;-83
2022/08/30 05:32:07;;;;;;;8.70;4.10;;;23.50;99.90;;;;;;4913383;29;20596;-82
2022/08/30 05:34:33;;;;;;;9.38;4.57;;;23.50;99.90;;;;;;4913127;29;20029;-82
2022/08/30 05:37:00;;;;;;;9.75;4.05;;;23.50;99.90;;;;;;4913603;29;20016;-82
2022/08/30 05:39:26;;;;;;;8.07;4.00;;;23.50;99.90;;;;;;4913215;29;20024;-83
2022/08/30 05:41:58;;;;;;;7.13;3.92;;;23.40;99.90;;;;;;4913525;29;20028;-83
2022/08/30 05:44:24;;;;;;;12.88;4.13;;;23.40;99.90;;;;;;4913223;29;20020;-82
2022/08/30 05:46:49;;;;;;;6.55;3.90;;;23.30;99.90;;;;;;4913037;29;20512;-83
2022/08/30 05:49:16;;;;;;;5.45;3.78;;;23.30;99.90;;;;;;4913084;29;20039;-82
2022/08/30 05:51:42;;;;;;;8.63;4.50;;;23.30;99.90;;;;;;4913389;29;20029;-83
2022/08/30 05:54:08;;;;;;;7.63;4.13;;;23.30;99.90;;;;;;4912767;29;20028;-88
2022/08/30 05:56:37;;;;;;;6.28;4.15;;;23.20;99.90;;;;;;4896400;29;20404;-87
2022/08/30 05:59:05;;;;;;;11.45;4.90;;;23.30;99.90;;;;;;4896479;29;20304;-87
2022/08/30 06:01:43;;;;;;;11.48;4.25;;;23.30;99.90;;;;;;4915960;29;20021;-87
2022/08/30 06:04:11;;;;;;;8.02;4.22;;;23.30;99.90;;;;;;4917053;29;20508;-87
2022/08/30 06:06:39;;;;;;;8.85;4.60;;;23.30;99.90;;;;;;4899935;29;20063;-87
2022/08/30 06:09:06;;;;;;;6.97;4.00;;;23.40;99.90;;;;;;4899849;29;20064;-88
2022/08/30 06:11:33;;;;;;;9.15;4.78;;;23.40;99.90;;;;;;4916895;29;20028;-87
2022/08/30 06:13:58;;;;;;;9.15;4.15;;;23.50;99.90;;;;;;4899832;29;20528;-87
2022/08/30 06:16:26;;;;;;;11.90;4.60;;;23.50;99.90;;;;;;4914741;29;20124;-87
2022/08/30 06:18:53;;;;;;;11.88;4.45;;;23.60;99.90;;;;;;4916783;29;20505;-88
2022/08/30 06:21:24;;;;;;;8.00;4.10;;;23.60;99.90;;;;;;4916747;29;20119;-87
2022/08/30 06:23:50;;;;;;;9.45;4.47;;;23.60;99.90;;;;;;4899582;29;20039;-87
2022/08/30 06:26:15;;;;;;;9.43;4.85;;;23.60;99.90;;;;;;4916409;29;20516;-87
2022/08/30 06:28:41;;;;;;;6.93;4.50;;;23.70;99.90;;;;;;4916723;29;20028;-88
2022/08/30 06:31:09;;;;;;;8.95;4.65;;;23.60;99.90;;;;;;4899295;29;20024;-87
2022/08/30 06:33:35;;;;;;;12.60;4.35;;;23.70;99.90;;;;;;4916430;29;20382;-88
2022/08/30 06:36:12;;;;;;;11.98;4.13;;;23.70;99.90;;;;;;4916398;29;20528;-83
2022/08/30 06:38:38;;;;;;;10.13;4.10;;;23.80;99.90;;;;;;4914550;29;20393;-83
2022/08/30 06:41:08;;;;;;;9.30;4.80;;;23.80;99.90;;;;;;4916485;29;20055;-83
2022/08/30 06:43:34;;;;;;;12.52;4.65;;;23.90;99.90;;;;;;4916707;29;20394;-83
2022/08/30 06:46:08;;;;;;;8.75;4.30;;;24.00;99.90;;;;;;4916736;29;20032;-83
2022/08/30 06:48:34;;;;;;;12.97;4.93;;;23.90;99.90;;;;;;4916360;29;20020;-83
2022/08/30 06:50:59;;;;;;;11.95;4.15;;;24.00;99.90;;;;;;4916328;29;20587;-83
2022/08/30 06:53:25;;;;;;;9.68;4.22;;;24.00;99.90;;;;;;4916430;29;20284;-83
2022/08/30 06:55:57;;;;;;;11.13;4.15;;;24.00;99.90;;;;;;4915922;29;20032;-83
2022/08/30 06:58:24;;;;;;;8.60;3.97;;;24.20;99.90;;;;;;4916185;29;20059;-83
2022/08/30 07:00:49;;;;;;;9.57;4.47;;;24.30;99.90;;;;;;4915943;29;20102;-82
2022/08/30 07:03:15;;;;;;;11.68;4.75;;;24.40;99.90;;;;;;4895854;29;20033;-83
2022/08/30 07:05:40;;;;;;;7.53;4.30;;;24.40;99.90;;;;;;4913667;29;20034;-83
2022/08/30 07:08:06;;;;;;;13.50;4.60;;;24.50;99.90;;;;;;4915836;29;20408;-83
2022/08/30 07:10:32;;;;;;;12.35;4.00;;;24.50;99.90;;;;;;4915742;29;20168;-83
2022/08/30 07:12:57;;;;;;;10.13;4.32;;;24.50;99.90;;;;;;4914950;29;20034;-83
2022/08/30 07:15:23;;;;;;;7.93;4.07;;;24.60;99.90;;;;;;4915657;29;20627;-83
2022/08/30 07:20:36;;;;;;;10.45;4.32;;;24.40;99.90;;;;;;4916097;29;20171;-83
2022/08/30 07:23:02;;;;;;;7.13;3.80;;;24.50;99.90;;;;;;4915540;29;20048;-83
2022/08/30 07:25:27;;;;;;;13.43;4.20;;;24.50;99.90;;;;;;4915453;29;20107;-83
2022/08/30 07:27:54;;;;;;;13.55;5.13;;;24.40;99.90;;;;;;4915532;29;20180;-83
2022/08/30 07:30:20;;;;;;;11.85;4.47;;;24.40;99.90;;;;;;4915387;29;20027;-83
2022/08/30 07:32:45;;;;;;;16.92;4.60;;;24.40;99.90;;;;;;4915301;29;20028;-83
2022/08/30 07:35:11;;;;;;;10.68;4.30;;;24.40;99.90;;;;;;4915223;29;20050;-83
2022/08/30 07:37:37;;;;;;;9.75;4.18;;;24.50;99.90;;;;;;4895687;29;20417;-83
2022/08/30 07:40:03;;;;;;;11.98;3.92;;;24.60;99.90;;;;;;4915191;29;20489;-83
2022/08/30 07:42:29;;;;;;;11.80;4.40;;;24.60;99.90;;;;;;4898608;29;20123;-83
2022/08/30 07:44:55;;;;;;;8.80;3.80;;;24.60;99.90;;;;;;4915299;29;20052;-83
2022/08/30 07:47:20;;;;;;;12.57;4.20;;;24.40;99.90;;;;;;4915130;29;20115;-83
2022/08/30 07:49:46;;;;;;;8.85;4.70;;;24.40;99.90;;;;;;4915170;29;20028;-83
2022/08/30 07:52:11;;;;;;;11.13;4.38;;;24.30;99.90;;;;;;4915046;29;20036;-82
2022/08/30 07:54:37;;;;;;;11.88;3.78;;;24.30;99.90;;;;;;4914766;29;20088;-83
2022/08/30 07:57:03;;;;;;;12.98;4.60;;;24.30;99.90;;;;;;4914958;29;20032;-82
2022/08/30 07:59:29;;;;;;;11.18;4.13;;;24.30;99.90;;;;;;4915178;29;20021;-82
2022/08/30 08:01:55;;;;;;;11.25;4.15;;;24.30;99.90;;;;;;4914712;29;20556;-82
2022/08/30 08:04:20;;;;;;;20.38;4.57;;;24.20;99.90;;;;;;4913703;29;20024;-82
2022/08/30 08:06:46;;;;;;;12.15;4.07;;;24.20;99.90;;;;;;4915034;29;20036;-82
2022/08/30 08:09:12;;;;;;;17.67;4.10;;;24.20;99.90;;;;;;4914405;29;20016;-83
2022/08/30 08:11:40;;;;;;;14.93;4.85;;;24.30;99.90;;;;;;4915223;29;20496;-82
2022/08/30 08:14:06;;;;;;;9.60;3.97;;;24.30;99.90;;;;;;4899782;29;20049;-82
2022/08/30 08:16:34;;;;;;;11.93;4.10;;;24.30;99.90;;;;;;4914402;29;20039;-82
2022/08/30 08:19:00;;;;;;;15.90;4.03;;;24.40;99.90;;;;;;4914620;29;20025;-82
2022/08/30 08:21:26;;;;;;;10.20;3.92;;;24.60;99.90;;;;;;4914560;29;20028;-83
2022/08/30 08:23:52;;;;;;;9.45;4.00;;;24.60;99.90;;;;;;4913943;29;20016;-82
2022/08/30 08:26:19;;;;;;;12.10;3.60;;;24.70;99.90;;;;;;4914174;29;20528;-82
2022/08/30 08:28:46;;;;;;;9.38;3.65;;;24.70;99.90;;;;;;4914552;29;20030;-82
2022/08/30 08:31:19;;;;;;;10.68;3.35;;;24.80;99.90;;;;;;4914392;29;20024;-82
2022/08/30 08:33:45;;;;;;;12.25;3.50;;;24.90;99.90;;;;;;4897240;29;20124;-83
2022/08/30 08:36:10;;;;;;;10.68;4.13;;;24.90;99.90;;;;;;4913977;29;20192;-83
2022/08/30 08:38:36;;;;;;;13.23;4.13;;;24.80;99.90;;;;;;4913898;29;20106;-82
2022/08/30 08:41:05;;;;;;;12.80;3.17;;;24.90;99.90;;;;;;4914298;29;20480;-82
2022/08/30 08:43:33;;;;;;;12.43;3.65;;;24.90;99.90;;;;;;4896984;29;20515;-82
2022/08/30 08:46:10;;;;;;;9.60;3.78;;;24.90;99.90;;;;;;4913994;29;20047;-83
2022/08/30 08:48:49;;;;;;;12.57;3.65;;;24.90;99.90;;;;;;4914015;29;20028;-82
2022/08/30 08:54:31;;;;;;;9.20;3.88;;;25.10;99.90;;;;;;4913549;29;20028;-82
2022/08/30 08:56:58;;;;;;;11.95;3.40;;;25.10;99.90;;;;;;4913997;29;20032;-83
2022/08/30 08:59:23;;;;;;;14.27;4.30;;;24.90;99.90;;;;;;4913873;29;20036;-83
2022/08/30 09:01:49;;;;;;;13.23;3.58;;;24.80;99.90;;;;;;4913921;29;20038;-82
2022/08/30 09:04:20;;;;;;;11.23;4.03;;;24.60;99.90;;;;;;4913687;29;20705;-82
2022/08/30 09:07:07;;;;;;;10.30;4.03;;;24.50;99.90;;;;;;4913906;29;20030;-82
2022/08/30 09:09:37;;;;;;;9.45;3.72;;;24.50;99.90;;;;;;4913510;29;20103;-83
2022/08/30 09:12:04;;;;;;;12.63;4.43;;;24.40;99.90;;;;;;4913735;29;20058;-85
2022/08/30 09:14:37;;;;;;;13.55;4.40;;;24.40;99.90;;;;;;4913487;29;20398;-85
2022/08/30 09:17:09;;;;;;;12.00;4.78;;;24.40;99.90;;;;;;4913688;29;20032;-85
2022/08/30 09:19:40;;;;;;;10.85;4.28;;;24.40;99.90;;;;;;4913464;29;20024;-85
2022/08/30 09:22:14;;;;;;;11.70;3.90;;;24.60;99.90;;;;;;4913650;29;20024;-85
2022/08/30 09:24:44;;;;;;;14.60;4.03;;;24.70;99.90;;;;;;4913535;29;20020;-85
2022/08/30 09:27:15;;;;;;;15.05;4.25;;;25.00;99.90;;;;;;4913478;29;20409;-86
2022/08/30 09:30:15;;;;;;;10.30;3.83;;;25.30;99.90;;;;;;4891907;29;20067;-85
2022/08/30 09:32:51;;;;;;;9.63;3.60;;;25.60;99.90;;;;;;4909946;29;20044;-85
2022/08/30 09:35:20;;;;;;;11.00;3.58;;;25.80;99.90;;;;;;4911755;29;20036;-85
2022/08/30 09:37:55;;;;;;;10.40;3.10;;;25.90;99.90;;;;;;4896571;29;20055;-85
2022/08/30 09:40:40;;;;;;;13.02;3.25;;;25.90;99.90;;;;;;4912355;29;20043;-85
2022/08/30 09:43:16;;;;;;;7.57;3.33;;;25.80;99.90;;;;;;4913420;29;20462;-85
2022/08/30 09:46:02;;;;;;;11.18;3.40;;;25.90;99.90;;;;;;4913494;29;20111;-82
2022/08/30 09:48:39;;;;;;;14.55;3.97;;;26.00;99.90;;;;;;4897148;29;20131;-82
2022/08/30 09:51:11;;;;;;;13.95;3.63;;;26.10;99.90;;;;;;4913311;29;20079;-82
2022/08/30 09:53:49;;;;;;;10.27;3.40;;;26.40;99.90;;;;;;4913123;29;20017;-83
2022/08/30 09:56:37;;;;;;;11.60;3.00;;;26.50;99.90;;;;;;4908225;29;20041;-82
2022/08/30 09:59:44;;;;;;;13.00;3.75;;;26.70;99.90;;;;;;4913362;29;20249;-82
2022/08/30 10:02:16;;;;;;;14.73;3.60;;;26.80;99.90;;;;;;4909432;29;20516;-82
2022/08/30 10:04:47;;;;;;;11.32;3.30;;;26.70;99.90;;;;;;4913308;29;20028;-82
2022/08/30 10:07:18;;;;;;;9.95;3.22;;;26.60;99.90;;;;;;4913470;29;20067;-83
2022/08/30 10:10:01;;;;;;;8.63;2.95;;;26.50;99.90;;;;;;4913374;29;20060;-82
2022/08/30 10:12:54;;;;;;;10.02;2.80;;;26.50;99.90;;;;;;4913411;29;20028;-82
2022/08/30 10:15:46;;;;;;;9.85;3.13;;;26.70;99.90;;;;;;4908106;29;20521;-82
2022/08/30 10:18:32;;;;;;;11.85;3.63;;;26.70;99.90;;;;;;4912746;29;20036;-83
2022/08/30 10:21:12;;;;;;;12.98;3.13;;;26.70;99.90;;;;;;4863471;29;20553;-82
2022/08/30 10:23:47;;;;;;;8.20;3.10;;;26.60;99.90;;;;;;4913145;29;20024;-83
2022/08/30 10:26:35;;;;;;;9.02;3.05;;;26.50;99.90;;;;;;4913065;29;20091;-83
2022/08/30 10:29:14;;;;;;;12.32;3.40;;;26.60;99.90;;;;;;4907774;29;20036;-83
2022/08/30 10:31:45;;;;;;;7.32;2.67;;;26.80;99.90;;;;;;4913065;29;20176;-83
2022/08/30 10:34:24;;;;;;;9.40;3.72;;;26.90;99.90;;;;;;4912901;29;20068;-82
2022/08/30 10:37:01;;;;;;;15.20;3.40;;;27.10;99.90;;;;;;4895836;29;20032;-83
2022/08/30 10:39:32;;;;;;;11.48;3.50;;;27.10;99.90;;;;;;4912659;29;20114;-82
2022/08/30 10:42:07;;;;;;;10.82;2.95;;;26.90;99.90;;;;;;4912778;29;20035;-82
2022/08/30 10:44:45;;;;;;;21.08;3.78;;;26.90;99.90;;;;;;4912910;29;20481;-82
2022/08/30 10:47:46;;;;;;;9.82;3.42;;;26.80;99.90;;;;;;4913326;29;20448;-82
2022/08/30 10:50:23;;;;;;;11.82;3.50;;;26.50;99.90;;;;;;4916180;29;20606;-82
2022/08/30 10:52:59;;;;;;;9.32;3.13;;;26.60;99.90;;;;;;4910448;29;20028;-82
2022/08/30 10:55:29;;;;;;;11.88;3.33;;;26.60;99.90;;;;;;4915888;29;20204;-83
2022/08/30 10:58:15;;;;;;;11.13;3.58;;;26.90;99.90;;;;;;4914825;29;20527;-82
2022/08/30 11:01:05;;;;;;;10.18;2.95;;;27.30;99.90;;;;;;4916463;29;20040;-82
2022/08/30 11:03:48;;;;;;;9.55;3.22;;;27.50;99.90;;;;;;4909968;29;20103;-82
2022/08/30 11:06:41;;;;;;;14.87;3.67;;;27.80;99.90;;;;;;4911995;29;20040;-83
2022/08/30 11:09:16;;;;;;;10.05;3.60;;;28.10;99.90;;;;;;4915678;29;20265;-83
2022/08/30 11:12:19;;;;;;;8.00;2.83;;;27.90;99.90;;;;;;4909817;29;20056;-83
2022/08/30 11:14:45;;;;;;;8.70;3.42;;;27.90;99.90;;;;;;4914143;29;20324;-83
2022/08/30 11:17:57;;;;;;;10.95;4.10;;;27.80;99.90;;;;;;4898775;29;20489;-83
2022/08/30 11:20:45;;;;;;;13.77;3.40;;;27.60;99.90;;;;;;4903337;29;20080;-82
2022/08/30 11:23:32;;;;;;;11.75;3.42;;;27.40;99.90;;;;;;4915379;29;20107;-83
2022/08/30 11:26:06;;;;;;;12.68;4.22;;;27.30;99.90;;;;;;4906939;29;20131;-83
2022/08/30 11:28:35;;;;;;;14.32;4.10;;;27.00;99.90;;;;;;4896736;29;20028;-83
2022/08/30 11:31:07;;;;;;;14.90;4.30;;;27.20;99.90;;;;;;4896727;29;20119;-83
2022/08/30 11:33:44;;;;;;;9.75;3.13;;;27.50;99.90;;;;;;4896882;29;20108;-83
2022/08/30 11:36:31;;;;;;;9.32;3.85;;;27.70;99.90;;;;;;4896498;29;20040;-83
2022/08/30 11:39:09;;;;;;;13.68;4.13;;;27.80;99.90;;;;;;4891247;29;20025;-82
2022/08/30 11:41:42;;;;;;;9.27;3.53;;;28.10;99.90;;;;;;4896403;29;20173;-83
2022/08/30 11:44:13;;;;;;;9.63;4.07;;;28.00;99.90;;;;;;4893422;29;20025;-83
2022/08/30 11:46:40;;;;;;;12.20;3.83;;;27.90;99.90;;;;;;4896781;29;20028;-83
2022/08/30 11:49:12;;;;;;;9.60;3.67;;;28.20;99.90;;;;;;4896419;29;20029;-83
2022/08/30 11:51:48;;;;;;;12.77;3.65;;;28.30;99.90;;;;;;4896943;29;20025;-83
2022/08/30 11:54:39;;;;;;;13.00;3.58;;;28.30;99.90;;;;;;4896170;29;20187;-83
2022/08/30 11:57:25;;;;;;;8.25;3.55;;;28.20;99.90;;;;;;4896100;29;20582;-83
2022/08/30 12:00:08;;;;;;;10.30;3.45;;;28.30;99.90;;;;;;4896009;29;20028;-82
2022/08/30 12:02:57;;;;;;;10.93;4.35;;;28.30;99.90;;;;;;4896197;29;20012;-83
2022/08/30 12:05:38;;;;;;;12.30;4.20;;;28.50;99.90;;;;;;4891921;29;20113;-82
2022/08/30 12:08:19;;;;;;;15.93;3.78;;;28.60;99.90;;;;;;4893878;29;20020;-83
2022/08/30 12:10:48;;;;;;;16.23;4.90;;;28.60;99.90;;;;;;4895931;29;20029;-82
2022/08/30 12:13:44;;;;;;;20.08;5.75;;;28.50;99.90;;;;;;4896308;29;20032;-83
2022/08/30 12:16:18;;;;;;;16.98;4.63;;;28.20;99.90;;;;;;4895825;29;20509;-82
2022/08/30 12:18:47;;;;;;;17.77;4.75;;;27.90;99.90;;;;;;4894328;29;20329;-83
2022/08/30 12:21:34;;;;;;;17.33;4.85;;;27.70;99.90;;;;;;4895617;29;20033;-83
2022/08/30 12:24:20;;;;;;;14.95;4.63;;;27.90;99.90;;;;;;4895811;29;20097;-82
2022/08/30 12:26:50;;;;;;;17.50;5.07;;;28.10;99.90;;;;;;4903279;29;20048;-83
2022/08/30 12:29:17;;;;;;;16.08;4.68;;;27.90;99.90;;;;;;4897605;29;20033;-82
2022/08/30 12:31:47;;;;;;;17.05;4.20;;;27.90;99.90;;;;;;4914514;29;20031;-82
2022/08/30 12:34:21;;;;;;;18.10;4.93;;;28.10;99.90;;;;;;4897462;29;20020;-83
2022/08/30 12:36:51;;;;;;;;;;;28.20;99.90;;;;;;4893496;29;20056;-83
2022/08/30 12:39:33;;;;;;;12.15;4.57;;;28.10;99.90;;;;;;4914377;29;19907;-83
2022/08/30 12:42:16;;;;;;;17.83;4.05;;;28.10;99.90;;;;;;4914160;29;20046;-83
2022/08/30 12:44:41;;;;;;;13.80;4.40;;;28.00;99.90;;;;;;4909111;29;20028;-84
2022/08/30 12:47:11;;;;;;;18.77;4.70;;;28.10;99.90;;;;;;4894589;29;20034;-83
2022/08/30 12:49:39;;;;;;;15.65;4.60;;;27.90;99.90;;;;;;4914487;29;20027;-83
2022/08/30 12:52:20;;;;;;;14.25;4.88;;;27.90;99.90;;;;;;4914202;29;20084;-83
2022/08/30 12:54:46;;;;;;;16.15;4.95;;;27.70;99.90;;;;;;4896714;29;20498;-83
2022/08/30 12:57:13;;;;;;;15.60;4.78;;;27.80;99.90;;;;;;4914039;29;20035;-83
2022/08/30 12:59:41;;;;;;;16.25;4.90;;;27.90;99.90;;;;;;4914169;29;20031;-83
2022/08/30 13:02:30;;;;;;;18.27;5.15;;;27.90;99.90;;;;;;4913910;29;20113;-83
2022/08/30 13:04:57;;;;;;;12.52;4.55;;;27.90;99.90;;;;;;4874401;29;20072;-83